Time;durP1;ratioP1;P1;durP2;ratioP2;P2;SDS_P1;SDS_P2;PMS_P1;PMS_P2;Temp;Humidity;BMP_temperature;BMP_pressure;BME280_temperature;BME280_humidity;BME280_pressure;Samples;Min_cycle;Max_cycle;Signal;HPM_P1;HPM_P2
2021/09/05 00:02:31;;;;;;;12.18;9.07;;;15.00;99.90;;;;;;6176489;28;20034;-79
2021/09/05 00:05:32;;;;;;;10.60;8.93;;;15.40;99.90;;;;;;6176080;28;20069;-77
2021/09/05 00:08:32;;;;;;;9.90;8.82;;;14.80;99.90;;;;;;6193669;28;20061;-79
2021/09/05 00:11:33;;;;;;;9.98;8.93;;;15.10;99.90;;;;;;6176313;28;20030;-77
2021/09/05 00:14:34;;;;;;;10.15;8.75;;;15.00;99.90;;;;;;6176061;28;20471;-79
2021/09/05 00:17:34;;;;;;;10.57;9.18;;;14.70;99.90;;;;;;6160895;28;20064;-79
2021/09/05 00:20:35;;;;;;;10.82;9.63;;;15.00;99.90;;;;;;6198771;28;20026;-79
2021/09/05 00:23:36;;;;;;;10.43;8.50;;;15.00;99.90;;;;;;6180813;28;20472;-79
2021/09/05 00:26:36;;;;;;;11.02;8.70;;;14.90;99.90;;;;;;6164130;28;20462;-78
2021/09/05 00:29:37;;;;;;;10.98;8.57;;;15.10;99.90;;;;;;6198046;28;20472;-79
2021/09/05 00:32:37;;;;;;;9.80;8.32;;;15.00;99.90;;;;;;6180272;28;20031;-79
2021/09/05 00:35:38;;;;;;;10.65;8.75;;;15.10;99.90;;;;;;6197982;28;20056;-79
2021/09/05 00:38:39;;;;;;;10.75;9.48;;;;;;;;;;6197403;28;20497;-79
2021/09/05 00:41:40;;;;;;;10.23;8.43;;;;;;;;;;6180395;28;20056;-79
2021/09/05 00:44:41;;;;;;;10.57;8.70;;;;;;;;;;6180213;28;20096;-80
2021/09/05 00:47:42;;;;;;;10.73;8.68;;;;;;;;;;6179720;28;20109;-79
2021/09/05 00:50:44;;;;;;;16.45;8.88;;;;;;;;;;6180008;28;20404;-79
2021/09/05 00:53:45;;;;;;;10.23;9.05;;;15.10;99.90;;;;;;6197256;28;20034;-79
2021/09/05 00:56:46;;;;;;;8.95;8.05;;;15.30;99.90;;;;;;6197495;28;20464;-80
2021/09/05 00:59:48;;;;;;;12.05;8.18;;;15.10;99.90;;;;;;6163571;28;20027;-79
2021/09/05 01:02:49;;;;;;;;;;;15.10;99.90;;;;;;6180611;28;20031;-79
2021/09/05 01:05:49;;;;;;;11.90;8.75;;;14.90;99.90;;;;;;6197039;28;19916;-79
2021/09/05 01:08:53;;;;;;;9.93;8.50;;;15.00;99.90;;;;;;6163555;28;20054;-79
2021/09/05 01:11:55;;;;;;;10.15;8.50;;;14.60;99.90;;;;;;6179991;28;20022;-79
2021/09/05 01:14:56;;;;;;;10.50;7.97;;;;;;;;;;6179578;28;20465;-79
2021/09/05 01:17:57;;;;;;;11.30;8.98;;;14.40;99.90;;;;;;6179328;28;20026;-79
2021/09/05 01:20:57;;;;;;;11.20;8.73;;;14.60;99.90;;;;;;6163275;28;20034;-79
2021/09/05 01:23:58;;;;;;;8.98;7.82;;;14.30;99.90;;;;;;6196989;28;20033;-79
2021/09/05 01:26:58;;;;;;;10.43;8.32;;;14.40;99.90;;;;;;6163062;28;20061;-79
2021/09/05 01:29:59;;;;;;;9.52;8.52;;;14.60;99.90;;;;;;6162652;28;20042;-79
2021/09/05 01:32:59;;;;;;;14.57;8.63;;;14.20;99.90;;;;;;6196769;28;20954;-79
2021/09/05 01:36:00;;;;;;;10.23;9.00;;;14.30;99.90;;;;;;6178812;28;20037;-78
2021/09/05 01:39:01;;;;;;;11.25;8.95;;;;;;;;;;6196260;28;20109;-78
2021/09/05 01:42:02;;;;;;;10.60;9.50;;;14.30;99.90;;;;;;6178783;28;20026;-79
2021/09/05 01:45:03;;;;;;;10.13;8.82;;;14.50;99.90;;;;;;6196027;28;20038;-78
2021/09/05 01:48:04;;;;;;;12.07;8.63;;;14.70;99.90;;;;;;6162260;28;20069;-79
2021/09/05 01:51:04;;;;;;;9.52;8.48;;;14.70;99.90;;;;;;6178463;28;20122;-79
2021/09/05 01:54:05;;;;;;;12.35;8.70;;;14.80;99.90;;;;;;6195855;28;20030;-79
2021/09/05 01:57:05;;;;;;;10.07;8.93;;;14.80;99.90;;;;;;6178664;28;20066;-79
2021/09/05 02:00:06;;;;;;;10.10;8.90;;;14.70;99.90;;;;;;6178285;28;20029;-79
2021/09/05 02:03:07;;;;;;;11.18;8.90;;;14.80;99.90;;;;;;6178455;28;20026;-79
2021/09/05 02:06:08;;;;;;;10.38;8.90;;;;;;;;;;6162264;28;20034;-79
2021/09/05 02:09:09;;;;;;;11.13;8.00;;;14.70;99.90;;;;;;6178018;28;20034;-79
2021/09/05 02:12:09;;;;;;;10.35;8.50;;;14.60;99.90;;;;;;6162308;28;20030;-79
2021/09/05 02:15:10;;;;;;;17.13;8.93;;;14.60;99.90;;;;;;6177882;28;20511;-79
2021/09/05 02:18:10;;;;;;;10.15;8.35;;;14.40;99.90;;;;;;6195774;28;20026;-79
2021/09/05 02:21:11;;;;;;;11.70;8.63;;;14.50;99.90;;;;;;6195565;28;20022;-79
2021/09/05 02:24:12;;;;;;;12.20;9.20;;;14.40;99.90;;;;;;6195587;28;20108;-79
2021/09/05 02:27:12;;;;;;;11.73;8.50;;;14.00;99.90;;;;;;6177779;28;20464;-79
2021/09/05 02:30:13;;;;;;;11.38;8.55;;;14.60;99.90;;;;;;6177876;28;20034;-79
2021/09/05 02:33:14;;;;;;;11.98;9.15;;;14.10;99.90;;;;;;6161633;28;20070;-79
2021/09/05 02:36:15;;;;;;;10.02;8.93;;;;;;;;;;6177224;28;20038;-79
2021/09/05 02:39:15;;;;;;;10.27;8.32;;;14.30;99.90;;;;;;6177933;28;20838;-79
2021/09/05 02:42:16;;;;;;;11.50;8.32;;;14.50;99.90;;;;;;6194672;28;20080;-79
2021/09/05 02:45:17;;;;;;;12.80;8.57;;;14.50;99.90;;;;;;6177392;28;20032;-79
2021/09/05 02:48:17;;;;;;;14.27;8.73;;;14.20;99.90;;;;;;6176965;28;20042;-79
2021/09/05 02:51:18;;;;;;;10.73;8.88;;;14.40;99.90;;;;;;6177616;28;20076;-79
2021/09/05 02:54:18;;;;;;;12.82;9.02;;;14.50;99.90;;;;;;6177049;28;20026;-79
2021/09/05 02:57:19;;;;;;;11.38;9.18;;;;;;;;;;6194913;28;20093;-79
2021/09/05 03:00:20;;;;;;;10.70;8.90;;;14.00;99.90;;;;;;6177112;28;20022;-79
2021/09/05 03:03:21;;;;;;;11.00;8.88;;;;;;;;;;6194890;28;20030;-79
2021/09/05 03:06:22;;;;;;;12.27;8.38;;;14.00;99.90;;;;;;6177219;28;20376;-79
2021/09/05 03:09:23;;;;;;;11.68;8.80;;;13.90;99.90;;;;;;6161010;28;20042;-79
2021/09/05 03:12:23;;;;;;;10.30;8.68;;;13.90;99.90;;;;;;6160634;28;20030;-79
2021/09/05 03:15:24;;;;;;;9.27;8.38;;;14.10;99.90;;;;;;6176585;28;20030;-79
2021/09/05 03:18:25;;;;;;;11.57;8.90;;;14.10;99.90;;;;;;6194820;28;20400;-79
2021/09/05 03:21:25;;;;;;;11.40;8.65;;;14.40;99.90;;;;;;6160913;28;20147;-79
2021/09/05 03:24:26;;;;;;;8.85;7.95;;;;;;;;;;6195071;28;20026;-79
2021/09/05 03:27:27;;;;;;;10.05;9.05;;;;;;;;;;6194256;28;20038;-79
2021/09/05 03:30:28;;;;;;;10.55;8.82;;;14.10;99.90;;;;;;6194114;28;20093;-79
2021/09/05 03:33:28;;;;;;;10.80;8.95;;;14.30;99.90;;;;;;6194615;28;20110;-80
2021/09/05 03:36:29;;;;;;;10.63;9.48;;;14.20;99.90;;;;;;6176530;28;20054;-79
2021/09/05 03:39:29;;;;;;;10.98;8.70;;;14.00;99.90;;;;;;6176544;28;20109;-79
2021/09/05 03:42:30;;;;;;;11.05;9.00;;;13.90;99.90;;;;;;6194365;28;20042;-79
2021/09/05 03:45:31;;;;;;;10.40;8.57;;;13.70;99.90;;;;;;6176599;28;20097;-79
2021/09/05 03:48:32;;;;;;;11.18;8.90;;;;;;;;;;6194205;28;20039;-79
2021/09/05 03:51:33;;;;;;;12.43;9.13;;;13.80;99.90;;;;;;6176772;28;20026;-79
2021/09/05 03:54:33;;;;;;;9.73;8.73;;;13.80;99.90;;;;;;6180722;28;20034;-79
2021/09/05 03:57:34;;;;;;;13.70;9.05;;;13.90;99.90;;;;;;6165092;28;20065;-79
2021/09/05 04:00:35;;;;;;;16.60;9.52;;;13.70;99.90;;;;;;6199143;28;20073;-79
2021/09/05 04:03:35;;;;;;;10.57;9.48;;;13.60;99.90;;;;;;6165088;28;20041;-79
2021/09/05 04:06:36;;;;;;;11.73;8.55;;;13.40;99.90;;;;;;6165053;28;20357;-79
2021/09/05 04:12:57;;;;;;;11.05;8.95;;;13.60;99.90;;;;;;6170349;28;20042;-79
2021/09/05 04:15:57;;;;;;;11.43;8.98;;;13.60;99.90;;;;;;6180948;28;20025;-79
2021/09/05 04:18:58;;;;;;;12.10;8.98;;;13.80;99.90;;;;;;6180732;28;20042;-79
2021/09/05 04:21:59;;;;;;;12.75;9.88;;;13.50;99.90;;;;;;6180795;28;20049;-78
2021/09/05 04:24:59;;;;;;;11.85;10.13;;;13.50;99.90;;;;;;6198089;28;20077;-79
2021/09/05 04:28:00;;;;;;;15.57;9.77;;;13.70;99.90;;;;;;6164497;28;20026;-79
2021/09/05 04:31:00;;;;;;;12.15;9.57;;;13.60;99.90;;;;;;6180314;28;20492;-79
2021/09/05 04:34:01;;;;;;;9.55;8.55;;;13.70;99.90;;;;;;6164288;28;20391;-79
2021/09/05 04:37:02;;;;;;;10.40;8.88;;;13.80;99.90;;;;;;6180410;28;20046;-79
2021/09/05 04:40:04;;;;;;;12.65;8.57;;;14.20;99.90;;;;;;6164297;28;20034;-79
2021/09/05 04:43:05;;;;;;;11.02;8.75;;;14.20;99.90;;;;;;6164774;28;20026;-79
2021/09/05 04:46:06;;;;;;;9.43;8.43;;;14.20;99.90;;;;;;6164052;28;20030;-79
2021/09/05 04:49:06;;;;;;;11.57;8.27;;;14.20;99.90;;;;;;6197234;28;20472;-79
2021/09/05 04:52:07;;;;;;;9.80;7.97;;;14.20;99.90;;;;;;6197733;28;20049;-79
2021/09/05 04:55:08;;;;;;;9.13;8.00;;;14.10;99.90;;;;;;6180068;28;20030;-79
2021/09/05 04:58:09;;;;;;;9.60;8.32;;;14.20;99.90;;;;;;6197626;28;20032;-79
2021/09/05 05:01:09;;;;;;;9.63;8.32;;;14.10;99.90;;;;;;6179957;28;20150;-80
2021/09/05 05:04:10;;;;;;;11.02;8.65;;;13.60;99.90;;;;;;6179059;28;20034;-79
2021/09/05 05:07:10;;;;;;;10.07;9.00;;;13.70;99.90;;;;;;6163573;28;20049;-79
2021/09/05 05:10:11;;;;;;;9.80;8.80;;;13.90;99.90;;;;;;6197307;28;20544;-80
2021/09/05 05:13:11;;;;;;;9.65;8.65;;;13.90;99.90;;;;;;6197626;28;20045;-79
2021/09/05 05:16:12;;;;;;;10.20;8.55;;;14.30;99.90;;;;;;6179485;28;20354;-80
2021/09/05 05:19:13;;;;;;;9.93;8.23;;;13.90;99.90;;;;;;6163627;28;20030;-80
2021/09/05 05:22:13;;;;;;;9.15;8.25;;;13.90;99.90;;;;;;6179033;28;20428;-80
2021/09/05 05:25:14;;;;;;;10.82;8.15;;;13.90;99.90;;;;;;6179513;28;20057;-79
2021/09/05 05:28:15;;;;;;;13.00;8.85;;;14.20;99.90;;;;;;6179185;28;20065;-79
2021/09/05 05:31:15;;;;;;;12.38;9.40;;;14.10;99.90;;;;;;6163395;28;20499;-80
2021/09/05 05:34:16;;;;;;;11.55;9.48;;;14.60;99.90;;;;;;6179475;28;20026;-80
2021/09/05 05:37:17;;;;;;;12.57;8.65;;;14.70;99.90;;;;;;6162542;28;20054;-80
2021/09/05 05:40:22;;;;;;;10.05;8.43;;;15.60;99.90;;;;;;6179272;28;20118;-80
2021/09/05 05:43:23;;;;;;;11.50;8.15;;;15.60;99.90;;;;;;6147917;28;20032;-79
2021/09/05 05:46:23;;;;;;;8.73;7.47;;;16.10;99.90;;;;;;6196165;28;20033;-80
2021/09/05 05:49:24;;;;;;;9.63;7.80;;;16.60;99.90;;;;;;6162213;28;20061;-80
2021/09/05 05:52:24;;;;;;;11.60;8.35;;;17.20;99.90;;;;;;6178609;28;20034;-79
2021/09/05 05:55:25;;;;;;;10.80;8.48;;;17.20;99.90;;;;;;6178463;28;20063;-79
2021/09/05 05:58:27;;;;;;;9.23;8.18;;;17.50;99.90;;;;;;6195823;28;20026;-79
2021/09/05 06:01:28;;;;;;;9.00;7.70;;;17.80;99.90;;;;;;6163057;28;20352;-80
2021/09/05 06:04:29;;;;;;;12.18;8.35;;;18.10;99.90;;;;;;6196077;28;20030;-79
2021/09/05 06:07:29;;;;;;;8.95;7.35;;;18.40;99.90;;;;;;6178546;28;20037;-80
2021/09/05 06:10:31;;;;;;;11.00;8.23;;;;;;;;;;6161787;28;20034;-79
2021/09/05 06:13:33;;;;;;;9.80;7.97;;;19.00;99.90;;;;;;6195173;28;20046;-79
2021/09/05 06:16:34;;;;;;;8.90;7.45;;;19.20;99.90;;;;;;6194569;28;20037;-80
2021/09/05 06:19:34;;;;;;;8.40;7.50;;;19.60;99.90;;;;;;6178172;28;20097;-78
2021/09/05 06:22:35;;;;;;;9.80;6.93;;;20.00;99.90;;;;;;6161598;28;20034;-78
2021/09/05 06:25:35;;;;;;;8.38;7.43;;;20.40;99.90;;;;;;6161801;28;20049;-80
2021/09/05 06:28:36;;;;;;;9.00;6.95;;;21.00;99.90;;;;;;6177599;28;20365;-80
2021/09/05 06:31:37;;;;;;;8.20;6.90;;;21.60;99.90;;;;;;6178201;28;20037;-80
2021/09/05 06:34:37;;;;;;;8.10;6.65;;;21.40;99.90;;;;;;6161883;28;20162;-80
2021/09/05 06:37:38;;;;;;;8.90;6.95;;;21.90;99.90;;;;;;6161534;28;20435;-80
2021/09/05 06:40:38;;;;;;;11.35;7.28;;;22.30;99.90;;;;;;6195334;28;20038;-80
2021/09/05 06:43:39;;;;;;;7.60;6.80;;;22.40;99.90;;;;;;6177587;28;20148;-80
2021/09/05 06:46:40;;;;;;;10.52;7.03;;;23.00;99.90;;;;;;6177530;28;20072;-80
2021/09/05 06:49:40;;;;;;;10.18;6.97;;;22.90;99.90;;;;;;6194646;28;20046;-80
2021/09/05 06:52:41;;;;;;;8.43;7.28;;;23.30;99.90;;;;;;6177592;28;20025;-79
2021/09/05 06:55:41;;;;;;;8.23;7.38;;;23.60;99.90;;;;;;6177349;28;20054;-79
2021/09/05 06:58:42;;;;;;;7.70;6.53;;;23.60;99.90;;;;;;6194917;28;20023;-80
2021/09/05 07:01:43;;;;;;;8.20;7.40;;;23.70;99.90;;;;;;6177453;28;20113;-80
2021/09/05 07:04:44;;;;;;;8.45;7.15;;;23.40;99.90;;;;;;6176875;28;20030;-80
2021/09/05 07:07:45;;;;;;;8.43;7.20;;;;;;;;;;6177394;28;20037;-80
2021/09/05 07:10:46;;;;;;;9.98;7.03;;;;;;;;;;6176920;28;20463;-80
2021/09/05 07:13:47;;;;;;;8.27;7.15;;;;;;;;;;6177250;28;20034;-80
2021/09/05 07:16:48;;;;;;;9.05;6.75;;;;;;;;;;6176876;28;20376;-80
2021/09/05 07:19:49;;;;;;;8.68;6.80;;;24.80;99.90;;;;;;6194715;28;20023;-80
2021/09/05 07:22:50;;;;;;;8.10;6.67;;;;;;;;;;6177018;28;20478;-80
2021/09/05 07:25:51;;;;;;;8.02;7.22;;;;;;;;;;6194695;28;20495;-77
2021/09/05 07:28:51;;;;;;;11.33;7.20;;;25.10;99.10;;;;;;6181690;28;20033;-80
2021/09/05 07:31:52;;;;;;;7.10;6.40;;;25.60;94.40;;;;;;6199581;28;20376;-79
2021/09/05 07:34:52;;;;;;;8.07;6.27;;;25.70;93.10;;;;;;6165725;28;20030;-80
2021/09/05 07:37:53;;;;;;;7.33;6.63;;;26.20;92.00;;;;;;6198914;28;20054;-80
2021/09/05 07:40:54;;;;;;;7.33;6.60;;;26.50;91.70;;;;;;6181520;28;20035;-80
2021/09/05 07:43:54;;;;;;;7.50;6.70;;;27.10;90.80;;;;;;6181740;28;20105;-80
2021/09/05 07:46:55;;;;;;;7.53;6.83;;;27.60;89.20;;;;;;6199103;28;20030;-80
2021/09/05 07:49:56;;;;;;;8.40;6.63;;;27.90;87.50;;;;;;6181273;28;20103;-80
2021/09/05 07:52:56;;;;;;;6.67;6.07;;;28.30;85.90;;;;;;6199070;28;20034;-78
2021/09/05 07:55:57;;;;;;;9.60;6.43;;;28.10;86.00;;;;;;6181551;28;20027;-78
2021/09/05 07:58:57;;;;;;;8.30;7.10;;;28.60;84.10;;;;;;6165111;28;20046;-80
2021/09/05 08:01:58;;;;;;;9.23;7.17;;;28.90;82.50;;;;;;6149010;28;20037;-80
2021/09/05 08:04:59;;;;;;;8.53;7.73;;;29.20;82.60;;;;;;6181039;28;20427;-80
2021/09/05 08:07:59;;;;;;;7.47;6.63;;;29.30;81.70;;;;;;6164926;28;20034;-79
2021/09/05 08:11:00;;;;;;;7.07;6.17;;;29.50;79.70;;;;;;6180863;28;20031;-80
2021/09/05 08:14:00;;;;;;;8.00;7.03;;;29.60;80.60;;;;;;6181058;28;20045;-79
2021/09/05 08:17:01;;;;;;;6.83;6.13;;;30.00;78.80;;;;;;6180841;28;20389;-79
2021/09/05 08:20:02;;;;;;;8.23;6.40;;;30.10;75.80;;;;;;6164646;28;20037;-79
2021/09/05 08:23:03;;;;;;;6.82;6.15;;;29.90;74.60;;;;;;6148851;28;20053;-80
2021/09/05 08:26:04;;;;;;;7.23;6.53;;;29.90;74.20;;;;;;6164453;28;20034;-79
2021/09/05 08:29:06;;;;;;;7.32;6.07;;;30.80;87.40;;;;;;6180666;28;20045;-79
2021/09/05 08:32:07;;;;;;;7.00;6.10;;;30.70;72.20;;;;;;6148453;28;20035;-79
2021/09/05 08:35:08;;;;;;;8.02;6.00;;;31.00;71.40;;;;;;6198084;28;20089;-80
2021/09/05 08:38:09;;;;;;;7.55;5.90;;;;;;;;;;6196733;28;20066;-80
2021/09/05 08:41:09;;;;;;;7.03;6.32;;;31.10;69.50;;;;;;6180471;28;20026;-78
2021/09/05 08:44:10;;;;;;;6.67;6.07;;;31.20;70.20;;;;;;6163734;28;20038;-80
2021/09/05 08:47:11;;;;;;;6.20;5.60;;;31.40;83.60;;;;;;6163858;28;20054;-80
2021/09/05 08:50:11;;;;;;;6.80;6.17;;;30.80;67.10;;;;;;6164227;28;20455;-77
2021/09/05 08:53:12;;;;;;;6.82;6.13;;;31.40;69.70;;;;;;6179884;28;20587;-79
2021/09/05 08:56:13;;;;;;;7.03;5.72;;;31.40;68.60;;;;;;6180018;28;20027;-79
2021/09/05 08:59:14;;;;;;;7.65;6.63;;;31.40;68.70;;;;;;6163340;28;20138;-77
2021/09/05 09:02:15;;;;;;;8.68;5.97;;;31.70;69.00;;;;;;6163520;28;20026;-78
2021/09/05 09:05:15;;;;;;;7.17;5.80;;;31.80;65.90;;;;;;6197106;28;20396;-77
2021/09/05 09:08:16;;;;;;;6.63;6.00;;;31.80;65.20;;;;;;6147423;28;20160;-79
2021/09/05 09:11:16;;;;;;;8.57;6.27;;;32.00;66.30;;;;;;6163535;28;20041;-77
2021/09/05 09:14:17;;;;;;;7.10;6.40;;;32.00;65.50;;;;;;6179504;28;20022;-78
2021/09/05 09:17:18;;;;;;;6.60;5.70;;;31.40;65.70;;;;;;6197299;28;20057;-78
2021/09/05 09:20:40;;;;;;;6.50;5.93;;;32.30;81.10;;;;;;6162919;28;20172;-79
2021/09/05 09:23:41;;;;;;;7.25;6.55;;;32.10;64.60;;;;;;6179385;28;20121;-77
2021/09/05 09:26:42;;;;;;;8.43;7.00;;;32.10;66.60;;;;;;6163098;28;20036;-77
2021/09/05 09:29:42;;;;;;;8.03;7.23;;;32.00;66.70;;;;;;6147044;28;20783;-77
2021/09/05 09:32:49;;;;;;;7.83;6.77;;;32.30;68.00;;;;;;6179101;28;20257;-79
2021/09/05 09:36:00;;;;;;;7.70;7.00;;;32.10;67.80;;;;;;6163063;28;20393;-79
2021/09/05 09:39:05;;;;;;;7.95;7.18;;;31.90;67.90;;;;;;6162571;28;20137;-79
2021/09/05 09:42:06;;;;;;;8.05;6.85;;;31.90;67.60;;;;;;6162959;28;20038;-79
2021/09/05 09:45:14;;;;;;;9.33;7.90;;;32.00;69.30;;;;;;6146885;28;20468;-79
2021/09/05 09:48:24;;;;;;;8.95;7.50;;;31.20;84.30;;;;;;6196572;28;20022;-79
2021/09/05 09:51:25;;;;;;;8.50;7.17;;;32.00;69.70;;;;;;6178252;28;20033;-79
2021/09/05 09:54:26;;;;;;;7.75;6.95;;;32.10;69.30;;;;;;6178614;28;20026;-77
2021/09/05 09:57:26;;;;;;;8.07;7.27;;;32.10;70.50;;;;;;6178323;28;20030;-77
2021/09/05 10:00:27;;;;;;;9.18;7.53;;;31.70;83.70;;;;;;6178681;28;20262;-79
2021/09/05 10:03:29;;;;;;;9.07;7.27;;;31.90;93.90;;;;;;6178191;28;20472;-79
2021/09/05 10:06:31;;;;;;;8.93;7.43;;;31.40;94.40;;;;;;6178172;28;20026;-79
2021/09/05 10:09:31;;;;;;;8.18;6.97;;;31.80;94.50;;;;;;6177833;28;20582;-79
2021/09/05 10:12:32;;;;;;;8.30;7.50;;;;;;;;;;6178498;28;20030;-79
2021/09/05 10:15:33;;;;;;;8.52;7.40;;;32.00;93.40;;;;;;6196219;28;20036;-79
2021/09/05 10:18:35;;;;;;;8.30;7.50;;;;;;;;;;6145801;28;20042;-79
2021/09/05 10:21:36;;;;;;;8.35;7.55;;;;;;;;;;6178217;28;20050;-78
2021/09/05 10:24:41;;;;;;;7.95;6.90;;;32.20;77.70;;;;;;6195458;28;20022;-78
2021/09/05 10:27:48;;;;;;;8.57;7.68;;;32.00;84.00;;;;;;6177684;28;20083;-78
2021/09/05 10:30:58;;;;;;;8.50;7.10;;;32.20;81.10;;;;;;6178662;28;20034;-78
2021/09/05 10:33:59;;;;;;;8.18;7.38;;;;;;;;;;6177986;28;20483;-78
2021/09/05 10:37:12;;;;;;;8.88;7.60;;;32.20;76.70;;;;;;6195308;28;20054;-78
2021/09/05 10:40:13;;;;;;;7.13;6.43;;;32.20;68.00;;;;;;6162543;28;20038;-78
2021/09/05 10:43:14;;;;;;;8.93;6.85;;;32.10;67.80;;;;;;6177429;28;20030;-78
2021/09/05 10:46:19;;;;;;;9.35;7.60;;;32.20;67.60;;;;;;6177739;28;20068;-78
2021/09/05 10:49:39;;;;;;;7.80;6.40;;;32.10;65.80;;;;;;6161441;28;20168;-78
2021/09/05 10:52:46;;;;;;;7.70;6.82;;;32.20;66.80;;;;;;6177660;28;20026;-78
2021/09/05 10:56:10;;;;;;;9.05;7.20;;;32.20;66.10;;;;;;6177361;28;20034;-78
2021/09/05 10:59:16;;;;;;;8.68;6.85;;;32.00;66.60;;;;;;6195002;28;20030;-78
2021/09/05 11:02:17;;;;;;;9.27;7.45;;;31.90;68.20;;;;;;6161130;28;20027;-78
2021/09/05 11:05:18;;;;;;;7.30;6.20;;;31.90;68.40;;;;;;6177144;28;20026;-78
2021/09/05 11:08:22;;;;;;;8.07;6.80;;;32.00;69.20;;;;;;6194718;28;20261;-78
2021/09/05 11:12:11;;;;;;;7.80;6.40;;;32.00;66.40;;;;;;6177021;28;20530;-78
2021/09/05 11:15:13;;;;;;;7.00;6.30;;;31.90;65.70;;;;;;6163856;28;20042;-78
2021/09/05 11:18:14;;;;;;;9.10;6.45;;;31.90;65.40;;;;;;6161231;28;20088;-78
2021/09/05 11:21:24;;;;;;;12.33;6.97;;;32.00;67.30;;;;;;6176825;28;20026;-78
2021/09/05 11:24:25;;;;;;;6.68;6.00;;;32.00;67.10;;;;;;6177200;28;20261;-78
2021/09/05 11:27:25;;;;;;;8.77;6.53;;;31.80;66.80;;;;;;6176713;28;20049;-78
2021/09/05 11:30:36;;;;;;;6.93;6.20;;;31.60;66.20;;;;;;6194159;28;20473;-78
2021/09/05 11:33:37;;;;;;;;;;;31.60;66.60;;;;;;6176994;28;20038;-78
2021/09/05 11:36:44;;;;;;;7.53;6.83;;;31.50;67.10;;;;;;6194342;28;20415;-78
2021/09/05 11:39:50;;;;;;;7.43;6.60;;;31.40;66.90;;;;;;6160999;28;20117;-78
2021/09/05 11:42:52;;;;;;;7.22;6.53;;;31.40;68.60;;;;;;6177128;28;20483;-79
2021/09/05 11:45:52;;;;;;;7.55;6.65;;;31.50;67.20;;;;;;6176312;28;20077;-78
2021/09/05 11:48:55;;;;;;;7.00;6.30;;;31.40;68.30;;;;;;6160440;28;20109;-78
2021/09/05 11:51:56;;;;;;;10.07;7.00;;;31.30;67.80;;;;;;6176505;28;20025;-78
2021/09/05 11:55:13;;;;;;;7.53;6.32;;;31.10;69.70;;;;;;6160536;28;20133;-78
2021/09/05 11:58:14;;;;;;;7.15;6.45;;;31.10;67.40;;;;;;6161613;28;20042;-78
2021/09/05 12:01:14;;;;;;;7.90;6.47;;;31.10;68.00;;;;;;6160408;28;20349;-78
2021/09/05 12:04:18;;;;;;;7.77;7.07;;;31.00;68.20;;;;;;6144475;28;20154;-78
2021/09/05 12:07:19;;;;;;;8.65;6.85;;;31.10;68.80;;;;;;6176584;28;20265;-78
2021/09/05 12:10:25;;;;;;;8.47;6.17;;;31.00;70.30;;;;;;6176351;28;20495;-78
2021/09/05 12:13:25;;;;;;;6.70;6.10;;;31.10;69.30;;;;;;6176886;28;20258;-78
2021/09/05 12:16:27;;;;;;;8.33;7.10;;;31.10;68.90;;;;;;6181199;28;20033;-77
2021/09/05 12:19:28;;;;;;;7.22;6.53;;;31.00;69.40;;;;;;6164890;28;20603;-78
2021/09/05 12:22:58;;;;;;;6.97;6.27;;;30.80;68.80;;;;;;6164744;28;20077;-78
2021/09/05 12:26:03;;;;;;;8.15;7.22;;;30.70;71.30;;;;;;6083808;29;20028;-78
2021/09/05 12:29:04;;;;;;;6.88;6.13;;;30.80;70.50;;;;;;6084271;29;20111;-79
2021/09/05 12:32:04;;;;;;;10.13;7.23;;;30.70;70.80;;;;;;6099685;29;20521;-77
2021/09/05 12:35:05;;;;;;;7.47;6.72;;;30.10;93.60;;;;;;6083624;29;20040;-78
2021/09/05 12:38:07;;;;;;;8.82;6.85;;;30.00;82.70;;;;;;6099182;29;20067;-78
2021/09/05 12:41:07;;;;;;;7.55;6.20;;;30.00;94.30;;;;;;6083479;29;20059;-78
2021/09/05 12:44:09;;;;;;;8.30;5.77;;;29.90;94.20;;;;;;6099118;29;20047;-77
2021/09/05 12:47:10;;;;;;;8.57;6.65;;;;;;;;;;6099351;29;20115;-78
2021/09/05 12:50:12;;;;;;;7.68;6.88;;;29.80;80.50;;;;;;6083422;29;20044;-78
2021/09/05 12:53:15;;;;;;;8.48;6.70;;;30.00;68.30;;;;;;6083370;29;20044;-78
2021/09/05 12:56:16;;;;;;;9.18;6.90;;;29.90;69.50;;;;;;6083049;29;20395;-78
2021/09/05 12:59:17;;;;;;;8.33;6.33;;;29.90;69.30;;;;;;6098853;29;20068;-78
2021/09/05 13:02:19;;;;;;;7.88;6.47;;;29.80;70.20;;;;;;6138194;28;20081;-78
2021/09/05 13:05:19;;;;;;;7.32;6.53;;;29.80;69.50;;;;;;6180105;28;20034;-78
2021/09/05 13:08:20;;;;;;;7.70;6.90;;;29.80;70.70;;;;;;6197438;28;20369;-77
2021/09/05 13:11:25;;;;;;;8.07;6.20;;;29.80;72.20;;;;;;6179418;28;20022;-77
2021/09/05 13:14:25;;;;;;;7.20;6.45;;;29.80;71.10;;;;;;6163477;28;20093;-78
2021/09/05 13:17:27;;;;;;;7.93;7.13;;;29.90;71.60;;;;;;6147322;28;20030;-78
2021/09/05 13:20:27;;;;;;;7.28;6.05;;;29.70;71.10;;;;;;6147508;28;20843;-77
2021/09/05 13:23:28;;;;;;;6.70;6.00;;;29.90;70.50;;;;;;6179906;28;20026;-77
2021/09/05 13:26:29;;;;;;;7.50;6.80;;;29.70;70.80;;;;;;6162741;28;20042;-78
2021/09/05 13:29:29;;;;;;;8.52;5.97;;;29.70;71.10;;;;;;6163103;28;20420;-77
2021/09/05 13:32:30;;;;;;;7.80;7.00;;;29.80;69.10;;;;;;6179111;28;20369;-78
2021/09/05 13:35:31;;;;;;;7.32;6.60;;;29.70;72.30;;;;;;6196284;28;20172;-77
2021/09/05 13:38:32;;;;;;;8.53;7.60;;;29.90;85.80;;;;;;6178845;28;20516;-78
2021/09/05 13:41:32;;;;;;;9.57;6.78;;;29.80;70.40;;;;;;6178655;28;20025;-78
2021/09/05 13:44:33;;;;;;;7.87;6.37;;;29.90;72.70;;;;;;6178672;28;20034;-77
2021/09/05 13:47:34;;;;;;;7.00;6.40;;;29.90;69.60;;;;;;6201255;28;20085;-77
2021/09/05 13:50:34;;;;;;;6.67;5.93;;;29.70;69.80;;;;;;6162218;28;20373;-78
2021/09/05 13:53:35;;;;;;;7.55;6.85;;;29.70;71.20;;;;;;6162743;28;20023;-78
2021/09/05 13:56:36;;;;;;;7.73;6.93;;;29.80;71.40;;;;;;6162411;28;20548;-78
2021/09/05 13:59:37;;;;;;;10.30;7.07;;;29.90;72.00;;;;;;6178831;28;20132;-78
2021/09/05 14:02:37;;;;;;;7.28;6.07;;;29.80;69.20;;;;;;6162722;28;20041;-78
2021/09/05 14:05:38;;;;;;;7.40;5.93;;;29.80;70.90;;;;;;6178275;28;20031;-78
2021/09/05 14:08:39;;;;;;;6.80;6.10;;;29.80;69.40;;;;;;6178352;28;20156;-77
2021/09/05 14:11:39;;;;;;;7.47;6.77;;;29.80;86.60;;;;;;6195837;28;20058;-78
2021/09/05 14:14:40;;;;;;;7.53;6.70;;;29.90;71.40;;;;;;6195656;28;20041;-78
2021/09/05 14:17:41;;;;;;;7.40;6.70;;;29.90;70.00;;;;;;6162422;28;20069;-77
2021/09/05 14:20:41;;;;;;;8.00;6.03;;;29.90;70.30;;;;;;6177870;28;20031;-77
2021/09/05 14:23:42;;;;;;;7.03;6.20;;;29.90;68.50;;;;;;6195417;28;20117;-78
2021/09/05 14:26:42;;;;;;;7.37;6.60;;;29.60;67.90;;;;;;6178150;28;20030;-77
2021/09/05 14:49:50;;;;;;;7.50;6.20;;;29.60;68.20;;;;;;6194904;28;20046;-77
2021/09/05 14:56:09;;;;;;;7.20;6.45;;;29.60;85.20;;;;;;6194809;28;20437;-77
2021/09/05 15:02:44;;;;;;;6.78;6.05;;;29.50;69.50;;;;;;6179037;28;20467;-78
2021/09/05 15:05:53;;;;;;;7.75;6.30;;;29.70;69.10;;;;;;6163924;28;20346;-78
2021/09/05 15:12:13;;;;;;;7.97;7.10;;;29.70;66.90;;;;;;6180041;28;20137;-78
2021/09/05 15:15:13;;;;;;;7.67;5.93;;;29.30;68.40;;;;;;6194605;28;20040;-78
2021/09/05 15:18:14;;;;;;;6.97;6.37;;;29.20;67.80;;;;;;6194748;28;20065;-78
2021/09/05 15:21:16;;;;;;;7.47;6.53;;;29.40;70.10;;;;;;6177592;28;20031;-78
2021/09/05 15:24:17;;;;;;;7.18;6.43;;;29.50;69.00;;;;;;6161181;28;20057;-78
2021/09/05 15:27:20;;;;;;;10.73;6.37;;;29.30;69.70;;;;;;6194426;28;20026;-77
2021/09/05 15:31:32;;;;;;;5.82;5.10;;;28.30;93.90;;;;;;6194068;28;20049;-78
2021/09/05 15:34:27;;;;;;;7.47;4.85;;;28.40;67.90;;;;;;6185233;28;20108;-78
2021/09/05 15:56:57;;;;;;;6.67;4.70;;;25.20;97.50;;;;;;6198906;28;20845;-77
2021/09/05 16:00:12;;;;;;;5.57;4.88;;;24.90;97.80;;;;;;6165846;28;20029;-78
2021/09/05 16:06:29;;;;;;;5.68;4.88;;;;;;;;;;6198911;28;20487;-77
2021/09/05 16:16:24;;;;;;;6.60;5.90;;;;;;;;;;6198321;28;20052;-78
2021/09/05 16:19:25;;;;;;;5.72;5.05;;;;;;;;;;6198482;28;20089;-78
2021/09/05 16:22:27;;;;;;;6.37;4.83;;;;;;;;;;6198258;28;20113;-78
2021/09/05 16:25:28;;;;;;;7.57;4.70;;;25.30;85.50;;;;;;6198605;28;20261;-78
2021/09/05 16:28:29;;;;;;;5.88;4.72;;;25.90;77.00;;;;;;6180332;28;20281;-77
2021/09/05 16:31:37;;;;;;;5.28;4.60;;;25.30;76.20;;;;;;6180398;28;20073;-77
2021/09/05 16:41:03;;;;;;;6.10;4.15;;;25.00;76.20;;;;;;6182559;28;20034;-77
2021/09/05 16:44:03;;;;;;;4.70;4.23;;;25.00;76.50;;;;;;6197264;28;20120;-77
2021/09/05 16:47:04;;;;;;;5.43;4.53;;;25.00;76.80;;;;;;6180071;28;20031;-77
2021/09/05 16:50:05;;;;;;;7.27;4.57;;;24.90;77.60;;;;;;6195901;28;20038;-79
2021/09/05 16:53:06;;;;;;;5.88;4.93;;;24.60;77.00;;;;;;6164404;28;20045;-78
2021/09/05 16:56:07;;;;;;;5.07;4.57;;;24.40;78.40;;;;;;6198237;28;20034;-77
2021/09/05 16:59:07;;;;;;;4.87;4.37;;;24.20;78.10;;;;;;6179220;28;20037;-77
2021/09/05 17:02:08;;;;;;;5.27;4.77;;;;;;;;;;6197187;28;20045;-78
2021/09/05 17:05:10;;;;;;;6.17;5.43;;;;;;;;;;6197661;28;20396;-77
2021/09/05 17:08:10;;;;;;;6.07;5.43;;;23.70;79.80;;;;;;6197532;28;20291;-77